Davison Army Air Field
KDAA : now visible

Airfield :











YOU CAN JOIN US ON...

 
LOGIN :

Register | Disclaimer

   EN    FR    IT 

 









Legend :    VFR   Marginal VFR   IFR   Intensive IFR   Very Intensive IFR
Visi :
Ceiling :
>= 8 km
>= 3000ft
5 to 8 km
1000 to 3000 ft
1500m to 5 km
500 to 1000 ft
800 to 1500m
200 to 500 ft
< 800m
< 200 ft
Symbols :   Thunderstorms  Fog  Heavy snow  Heavy precipitations  Wind > 20 kt






- Airport Elevation : 73 ft


KDAA - Davison Army Air Field

CURRENT METAR :
  • 080656Z AUTO 00000KT 10SM CLR M04/M06 A3050 RMK AO2 SLPNO T10431065 $

EXPIRED METARs :
  • 080556Z AUTO 00000KT 10SM CLR M04/M06 A3050 RMK AO2 SLPNO T10361061 10002 21038 51006 $
  • 080456Z AUTO 00000KT 10SM CLR M03/M06 A3050 RMK AO2 SLPNO T10341062 400801034 $

TAF TAF KDAA
Valid from the 07 at 02:00 until the 08 at 08:00 UTC


070200Z 0702/0808 VRB06KT 9999 BKN030 QNH3012INS
BECMG 0708/0709 36006KT 9999 SCT020 QNH3015INS TX07/0703Z TN00/0711Z LAST NO AMDS AFT 0702 NEXT 0910



MET'MAP, your aeronautical weather chart ! - Copyright ORBIFLY December 2007 - Disclaimer

ORBIFLY MET'MAP TEAM :

Programming & Development : Alexandra Zaïnal
Concept & original design : Baudouin d'Aumeries
Assistance for programming : Marc-Olivier Méhu
Technical & hardware support : Manuel Goepfert

Contact : metmap@orbifly.com




SOURCES & CREDITS :

   NOAA       Earth
Advisory